sensor_id;sensor_type;location;lat;lon;timestamp;pressure;altitude;pressure_sealevel;temperature;humidity
6532;BME280;3299;42.004;24.868;2023-05-23T00:00:41;97863.50;;;16.30;100.00
6532;BME280;3299;42.004;24.868;2023-05-23T00:03:06;97853.56;;;16.34;96.57
6532;BME280;3299;42.004;24.868;2023-05-23T00:05:32;97859.16;;;16.39;98.33
6532;BME280;3299;42.004;24.868;2023-05-23T00:08:00;97912.72;;;16.68;100.00
6532;BME280;3299;42.004;24.868;2023-05-23T00:10:25;97860.38;;;16.27;99.72
6532;BME280;3299;42.004;24.868;2023-05-23T00:12:51;97897.91;;;16.51;98.51
6532;BME280;3299;42.004;24.868;2023-05-23T00:15:16;97850.53;;;16.21;99.75
6532;BME280;3299;42.004;24.868;2023-05-23T00:17:42;97850.22;;;16.24;100.00
6532;BME280;3299;42.004;24.868;2023-05-23T00:20:09;97930.19;;;16.68;96.21
6532;BME280;3299;42.004;24.868;2023-05-23T00:22:36;97843.47;;;16.13;100.00
6532;BME280;3299;42.004;24.868;2023-05-23T00:25:05;97892.13;;;16.40;100.00
6532;BME280;3299;42.004;24.868;2023-05-23T00:27:30;97905.41;;;16.46;99.54
6532;BME280;3299;42.004;24.868;2023-05-23T00:29:56;97928.81;;;16.56;100.00
6532;BME280;3299;42.004;24.868;2023-05-23T00:32:21;97862.41;;;16.15;99.66
6532;BME280;3299;42.004;24.868;2023-05-23T00:34:47;97847.19;;;16.11;97.72
6532;BME280;3299;42.004;24.868;2023-05-23T00:37:12;97927.78;;;16.49;98.66
6532;BME280;3299;42.004;24.868;2023-05-23T00:39:39;97873.19;;;16.20;97.24
6532;BME280;3299;42.004;24.868;2023-05-23T00:42:05;97895.28;;;16.26;98.62
6532;BME280;3299;42.004;24.868;2023-05-23T00:44:30;97847.06;;;15.95;99.99
6532;BME280;3299;42.004;24.868;2023-05-23T00:46:56;97879.19;;;16.13;100.00
6532;BME280;3299;42.004;24.868;2023-05-23T00:49:23;97875.53;;;16.06;100.00
6532;BME280;3299;42.004;24.868;2023-05-23T00:51:49;97897.91;;;16.08;100.00
6532;BME280;3299;42.004;24.868;2023-05-23T00:54:29;97862.38;;;15.90;100.00
6532;BME280;3299;42.004;24.868;2023-05-23T00:56:57;97848.28;;;15.83;100.00
6532;BME280;3299;42.004;24.868;2023-05-23T00:59:24;97854.84;;;15.87;100.00
6532;BME280;3299;42.004;24.868;2023-05-23T01:01:50;97880.31;;;16.10;98.41
6532;BME280;3299;42.004;24.868;2023-05-23T01:04:17;97839.84;;;15.89;97.81
6532;BME280;3299;42.004;24.868;2023-05-23T01:06:44;97852.56;;;16.09;96.84
6532;BME280;3299;42.004;24.868;2023-05-23T01:09:12;97824.63;;;16.02;96.10
6532;BME280;3299;42.004;24.868;2023-05-23T01:12:36;97875.72;;;16.30;98.06
6532;BME280;3299;42.004;24.868;2023-05-23T01:14:46;97827.03;;;15.95;99.42
6532;BME280;3299;42.004;24.868;2023-05-23T01:17:23;97834.34;;;15.92;100.00
6532;BME280;3299;42.004;24.868;2023-05-23T01:20:08;97912.47;;;16.36;100.00
6532;BME280;3299;42.004;24.868;2023-05-23T01:23:04;97905.41;;;16.29;100.00
6532;BME280;3299;42.004;24.868;2023-05-23T01:28:26;97883.00;;;16.01;100.00
6532;BME280;3299;42.004;24.868;2023-05-23T01:30:52;97910.41;;;15.97;100.00
6532;BME280;3299;42.004;24.868;2023-05-23T01:33:21;97839.59;;;15.57;100.00
6532;BME280;3299;42.004;24.868;2023-05-23T01:35:47;97904.09;;;15.90;100.00
6532;BME280;3299;42.004;24.868;2023-05-23T01:38:13;97864.16;;;15.72;100.00
6532;BME280;3299;42.004;24.868;2023-05-23T01:40:39;97868.66;;;15.62;100.00
6532;BME280;3299;42.004;24.868;2023-05-23T01:43:04;97898.19;;;15.80;100.00
6532;BME280;3299;42.004;24.868;2023-05-23T01:45:30;97857.47;;;15.52;100.00
6532;BME280;3299;42.004;24.868;2023-05-23T01:47:56;97908.44;;;15.64;100.00
6532;BME280;3299;42.004;24.868;2023-05-23T01:50:23;97888.19;;;15.58;100.00
6532;BME280;3299;42.004;24.868;2023-05-23T01:52:49;97816.59;;;15.08;100.00
6532;BME280;3299;42.004;24.868;2023-05-23T01:55:16;97898.03;;;15.64;100.00
6532;BME280;3299;42.004;24.868;2023-05-23T01:57:49;97865.53;;;15.41;100.00
6532;BME280;3299;42.004;24.868;2023-05-23T02:00:16;97845.16;;;15.27;100.00
6532;BME280;3299;42.004;24.868;2023-05-23T02:02:42;97861.88;;;15.51;100.00
6532;BME280;3299;42.004;24.868;2023-05-23T02:05:09;97829.72;;;15.16;100.00
6532;BME280;3299;42.004;24.868;2023-05-23T02:07:35;97876.72;;;15.51;100.00
6532;BME280;3299;42.004;24.868;2023-05-23T02:10:02;97807.53;;;15.12;100.00
6532;BME280;3299;42.004;24.868;2023-05-23T02:12:28;97882.13;;;15.57;100.00
6532;BME280;3299;42.004;24.868;2023-05-23T02:14:53;97863.97;;;15.48;100.00
6532;BME280;3299;42.004;24.868;2023-05-23T02:17:19;97886.03;;;15.53;100.00
6532;BME280;3299;42.004;24.868;2023-05-23T02:19:46;97852.81;;;15.28;100.00
6532;BME280;3299;42.004;24.868;2023-05-23T02:22:12;97889.06;;;15.49;100.00
6532;BME280;3299;42.004;24.868;2023-05-23T02:24:37;97833.59;;;15.12;100.00
6532;BME280;3299;42.004;24.868;2023-05-23T02:27:03;97825.91;;;14.93;100.00
6532;BME280;3299;42.004;24.868;2023-05-23T02:29:28;97797.34;;;14.74;100.00
6532;BME280;3299;42.004;24.868;2023-05-23T02:31:54;97803.69;;;14.62;100.00
6532;BME280;3299;42.004;24.868;2023-05-23T02:34:19;97827.34;;;14.78;100.00
6532;BME280;3299;42.004;24.868;2023-05-23T02:36:45;97888.16;;;15.13;100.00
6532;BME280;3299;42.004;24.868;2023-05-23T02:39:10;97857.03;;;14.85;100.00
6532;BME280;3299;42.004;24.868;2023-05-23T02:41:36;97877.31;;;14.91;100.00
6532;BME280;3299;42.004;24.868;2023-05-23T02:44:02;97793.69;;;14.40;100.00
6532;BME280;3299;42.004;24.868;2023-05-23T02:46:27;97804.16;;;14.21;100.00
6532;BME280;3299;42.004;24.868;2023-05-23T02:48:52;97877.84;;;14.67;100.00
6532;BME280;3299;42.004;24.868;2023-05-23T02:51:18;97891.25;;;14.72;100.00
6532;BME280;3299;42.004;24.868;2023-05-23T02:53:43;97888.88;;;14.79;100.00
6532;BME280;3299;42.004;24.868;2023-05-23T02:56:08;97796.22;;;14.22;100.00
6532;BME280;3299;42.004;24.868;2023-05-23T02:58:34;97842.84;;;14.43;100.00
6532;BME280;3299;42.004;24.868;2023-05-23T03:01:03;97861.31;;;14.49;100.00
6532;BME280;3299;42.004;24.868;2023-05-23T03:03:28;97803.03;;;14.14;100.00
6532;BME280;3299;42.004;24.868;2023-05-23T03:05:58;97799.47;;;14.15;100.00
6532;BME280;3299;42.004;24.868;2023-05-23T03:08:24;97851.63;;;14.42;100.00
6532;BME280;3299;42.004;24.868;2023-05-23T03:10:50;97817.28;;;14.29;100.00
6532;BME280;3299;42.004;24.868;2023-05-23T03:13:15;97884.53;;;14.70;100.00
6532;BME280;3299;42.004;24.868;2023-05-23T03:15:41;97820.81;;;14.18;100.00
6532;BME280;3299;42.004;24.868;2023-05-23T03:18:06;97885.00;;;14.56;100.00
6532;BME280;3299;42.004;24.868;2023-05-23T03:20:32;97857.75;;;14.50;100.00
6532;BME280;3299;42.004;24.868;2023-05-23T03:22:57;97879.38;;;14.60;100.00
6532;BME280;3299;42.004;24.868;2023-05-23T03:25:23;97839.66;;;14.49;100.00
6532;BME280;3299;42.004;24.868;2023-05-23T03:27:48;97845.66;;;14.59;100.00
6532;BME280;3299;42.004;24.868;2023-05-23T03:30:14;97838.91;;;14.66;100.00
6532;BME280;3299;42.004;24.868;2023-05-23T03:32:39;97872.28;;;14.80;100.00
6532;BME280;3299;42.004;24.868;2023-05-23T03:35:05;97886.53;;;14.85;100.00
6532;BME280;3299;42.004;24.868;2023-05-23T03:37:31;97889.41;;;14.82;100.00
6532;BME280;3299;42.004;24.868;2023-05-23T03:39:56;97804.16;;;14.21;100.00
6532;BME280;3299;42.004;24.868;2023-05-23T03:42:21;97861.38;;;14.40;100.00
6532;BME280;3299;42.004;24.868;2023-05-23T03:44:47;97814.03;;;14.08;100.00
6532;BME280;3299;42.004;24.868;2023-05-23T03:47:12;97814.59;;;14.02;100.00
6532;BME280;3299;42.004;24.868;2023-05-23T03:49:37;97855.91;;;14.24;100.00
6532;BME280;3299;42.004;24.868;2023-05-23T03:52:03;97821.03;;;13.98;100.00
6532;BME280;3299;42.004;24.868;2023-05-23T03:54:28;97803.66;;;13.98;100.00
6532;BME280;3299;42.004;24.868;2023-05-23T03:56:54;97800.47;;;14.04;100.00
6532;BME280;3299;42.004;24.868;2023-05-23T03:59:19;97818.91;;;14.30;100.00
6532;BME280;3299;42.004;24.868;2023-05-23T04:01:44;97902.25;;;14.93;100.00
6532;BME280;3299;42.004;24.868;2023-05-23T04:04:10;97872.25;;;14.89;100.00
6532;BME280;3299;42.004;24.868;2023-05-23T04:06:35;97873.44;;;14.95;100.00
6532;BME280;3299;42.004;24.868;2023-05-23T04:09:01;97868.53;;;14.92;100.00
6532;BME280;3299;42.004;24.868;2023-05-23T04:11:27;97831.69;;;14.60;100.00
6532;BME280;3299;42.004;24.868;2023-05-23T04:13:53;97828.94;;;14.61;100.00
6532;BME280;3299;42.004;24.868;2023-05-23T04:16:18;97901.25;;;15.04;100.00
6532;BME280;3299;42.004;24.868;2023-05-23T04:18:43;97856.50;;;14.81;100.00
6532;BME280;3299;42.004;24.868;2023-05-23T04:21:11;97831.06;;;14.75;100.00
6532;BME280;3299;42.004;24.868;2023-05-23T04:23:37;97872.00;;;15.10;100.00
6532;BME280;3299;42.004;24.868;2023-05-23T04:26:02;97910.88;;;15.48;100.00
6532;BME280;3299;42.004;24.868;2023-05-23T04:28:30;97832.69;;;15.03;100.00
6532;BME280;3299;42.004;24.868;2023-05-23T04:30:55;97907.75;;;15.44;100.00
6532;BME280;3299;42.004;24.868;2023-05-23T04:33:21;97888.41;;;15.47;100.00
6532;BME280;3299;42.004;24.868;2023-05-23T04:35:46;97900.69;;;15.72;100.00
6532;BME280;3299;42.004;24.868;2023-05-23T04:38:13;97872.81;;;15.55;100.00
6532;BME280;3299;42.004;24.868;2023-05-23T04:40:38;97849.53;;;15.53;100.00
6532;BME280;3299;42.004;24.868;2023-05-23T04:43:04;97898.91;;;15.90;100.00
6532;BME280;3299;42.004;24.868;2023-05-23T04:45:29;97864.53;;;15.77;100.00
6532;BME280;3299;42.004;24.868;2023-05-23T04:47:55;97860.16;;;15.77;100.00
6532;BME280;3299;42.004;24.868;2023-05-23T04:50:20;97860.75;;;15.71;100.00
6532;BME280;3299;42.004;24.868;2023-05-23T04:52:48;97833.69;;;15.55;100.00
6532;BME280;3299;42.004;24.868;2023-05-23T04:55:14;97841.69;;;15.53;100.00
6532;BME280;3299;42.004;24.868;2023-05-23T04:57:40;97896.00;;;15.75;100.00
6532;BME280;3299;42.004;24.868;2023-05-23T05:00:05;97886.63;;;15.65;100.00
6532;BME280;3299;42.004;24.868;2023-05-23T05:02:35;97908.72;;;15.61;100.00
6532;BME280;3299;42.004;24.868;2023-05-23T05:05:01;97870.44;;;15.44;100.00
6532;BME280;3299;42.004;24.868;2023-05-23T05:07:28;97893.09;;;15.61;100.00
6532;BME280;3299;42.004;24.868;2023-05-23T05:09:53;97854.72;;;15.36;100.00
6532;BME280;3299;42.004;24.868;2023-05-23T05:12:19;97848.34;;;15.21;100.00
6532;BME280;3299;42.004;24.868;2023-05-23T05:14:44;97893.47;;;15.48;100.00
6532;BME280;3299;42.004;24.868;2023-05-23T05:17:10;97849.03;;;15.23;100.00
6532;BME280;3299;42.004;24.868;2023-05-23T05:19:35;97856.31;;;15.19;100.00
6532;BME280;3299;42.004;24.868;2023-05-23T05:22:01;97881.44;;;15.38;100.00
6532;BME280;3299;42.004;24.868;2023-05-23T05:24:26;97902.19;;;15.57;100.00
6532;BME280;3299;42.004;24.868;2023-05-23T05:26:53;97905.47;;;15.59;100.00
6532;BME280;3299;42.004;24.868;2023-05-23T05:29:19;97864.94;;;15.47;100.00
6532;BME280;3299;42.004;24.868;2023-05-23T05:31:44;97905.69;;;15.65;100.00
6532;BME280;3299;42.004;24.868;2023-05-23T05:34:10;97890.72;;;15.67;100.00
6532;BME280;3299;42.004;24.868;2023-05-23T05:36:35;97895.94;;;15.67;100.00
6532;BME280;3299;42.004;24.868;2023-05-23T05:39:01;97933.50;;;15.92;100.00
6532;BME280;3299;42.004;24.868;2023-05-23T05:41:26;97875.28;;;15.56;100.00
6532;BME280;3299;42.004;24.868;2023-05-23T05:43:52;97905.25;;;15.70;100.00
6532;BME280;3299;42.004;24.868;2023-05-23T05:46:17;97949.97;;;16.10;100.00
6532;BME280;3299;42.004;24.868;2023-05-23T05:48:42;97940.78;;;16.06;100.00
6532;BME280;3299;42.004;24.868;2023-05-23T05:51:08;97954.06;;;16.12;100.00
6532;BME280;3299;42.004;24.868;2023-05-23T05:53:33;97883.41;;;15.71;100.00
6532;BME280;3299;42.004;24.868;2023-05-23T05:55:59;97972.25;;;16.22;100.00
6532;BME280;3299;42.004;24.868;2023-05-23T05:58:24;97946.06;;;16.14;100.00
6532;BME280;3299;42.004;24.868;2023-05-23T06:00:50;97967.47;;;16.35;100.00
6532;BME280;3299;42.004;24.868;2023-05-23T06:03:15;97934.88;;;16.21;100.00
6532;BME280;3299;42.004;24.868;2023-05-23T06:05:41;97960.47;;;16.35;100.00
6532;BME280;3299;42.004;24.868;2023-05-23T06:08:06;97947.31;;;16.27;100.00
6532;BME280;3299;42.004;24.868;2023-05-23T06:10:32;97909.69;;;16.12;100.00
6532;BME280;3299;42.004;24.868;2023-05-23T06:12:58;97923.16;;;16.25;100.00
6532;BME280;3299;42.004;24.868;2023-05-23T06:15:24;97886.22;;;16.12;100.00
6532;BME280;3299;42.004;24.868;2023-05-23T06:17:50;97942.66;;;16.56;100.00
6532;BME280;3299;42.004;24.868;2023-05-23T06:20:15;97891.00;;;16.25;100.00
6532;BME280;3299;42.004;24.868;2023-05-23T06:22:41;97891.59;;;16.36;100.00
6532;BME280;3299;42.004;24.868;2023-05-23T06:25:06;97906.06;;;16.48;100.00
6532;BME280;3299;42.004;24.868;2023-05-23T06:27:32;97932.84;;;16.76;100.00
6532;BME280;3299;42.004;24.868;2023-05-23T06:29:57;97905.69;;;16.69;100.00
6532;BME280;3299;42.004;24.868;2023-05-23T06:32:22;97923.03;;;16.78;100.00
6532;BME280;3299;42.004;24.868;2023-05-23T06:34:48;97967.38;;;17.21;100.00
6532;BME280;3299;42.004;24.868;2023-05-23T06:37:13;97947.16;;;17.31;100.00
6532;BME280;3299;42.004;24.868;2023-05-23T06:39:39;97936.22;;;17.27;100.00
6532;BME280;3299;42.004;24.868;2023-05-23T06:42:04;97970.03;;;17.62;100.00
6532;BME280;3299;42.004;24.868;2023-05-23T06:44:30;97973.47;;;17.71;100.00
6532;BME280;3299;42.004;24.868;2023-05-23T06:46:55;97969.06;;;17.79;100.00
6532;BME280;3299;42.004;24.868;2023-05-23T06:49:23;97923.38;;;17.50;100.00
6532;BME280;3299;42.004;24.868;2023-05-23T06:51:49;97942.41;;;17.68;100.00
6532;BME280;3299;42.004;24.868;2023-05-23T06:54:15;97969.59;;;17.91;100.00
6532;BME280;3299;42.004;24.868;2023-05-23T06:56:40;97921.47;;;17.76;100.00
6532;BME280;3299;42.004;24.868;2023-05-23T06:59:05;97884.50;;;17.63;100.00
6532;BME280;3299;42.004;24.868;2023-05-23T07:01:31;97877.97;;;17.75;100.00
6532;BME280;3299;42.004;24.868;2023-05-23T07:03:56;97926.22;;;18.20;100.00
6532;BME280;3299;42.004;24.868;2023-05-23T07:06:22;97917.56;;;18.28;100.00
6532;BME280;3299;42.004;24.868;2023-05-23T07:08:47;97948.38;;;18.50;100.00
6532;BME280;3299;42.004;24.868;2023-05-23T07:11:12;97951.94;;;18.57;100.00
6532;BME280;3299;42.004;24.868;2023-05-23T07:13:38;97918.91;;;18.48;100.00
6532;BME280;3299;42.004;24.868;2023-05-23T07:16:04;97931.13;;;18.71;100.00
6532;BME280;3299;42.004;24.868;2023-05-23T07:18:29;97875.16;;;18.56;100.00
6532;BME280;3299;42.004;24.868;2023-05-23T07:20:54;97907.66;;;18.86;100.00
6532;BME280;3299;42.004;24.868;2023-05-23T07:23:22;97897.53;;;18.83;97.00
6532;BME280;3299;42.004;24.868;2023-05-23T07:25:48;97884.72;;;18.88;97.74
6532;BME280;3299;42.004;24.868;2023-05-23T07:28:13;97900.00;;;19.15;96.05
6532;BME280;3299;42.004;24.868;2023-05-23T07:30:41;97953.28;;;19.62;92.75
6532;BME280;3299;42.004;24.868;2023-05-23T07:33:06;97931.00;;;19.58;91.71
6532;BME280;3299;42.004;24.868;2023-05-23T07:35:32;97881.53;;;19.47;89.37
6532;BME280;3299;42.004;24.868;2023-05-23T07:37:57;97911.53;;;19.75;85.90
6532;BME280;3299;42.004;24.868;2023-05-23T07:40:23;97946.31;;;19.99;83.56
6532;BME280;3299;42.004;24.868;2023-05-23T07:42:48;97931.22;;;20.01;83.70
6532;BME280;3299;42.004;24.868;2023-05-23T07:45:16;97955.50;;;20.26;84.73
6532;BME280;3299;42.004;24.868;2023-05-23T07:47:41;97959.72;;;20.35;84.89
6532;BME280;3299;42.004;24.868;2023-05-23T07:50:07;97883.41;;;20.06;84.86
6532;BME280;3299;42.004;24.868;2023-05-23T07:52:34;97949.06;;;20.51;83.69
6532;BME280;3299;42.004;24.868;2023-05-23T07:55:00;97932.31;;;20.52;82.11
6532;BME280;3299;42.004;24.868;2023-05-23T07:57:25;97952.72;;;20.79;80.44
6532;BME280;3299;42.004;24.868;2023-05-23T07:59:52;97912.63;;;20.62;81.33
6532;BME280;3299;42.004;24.868;2023-05-23T08:02:18;97937.06;;;20.85;80.43
6532;BME280;3299;42.004;24.868;2023-05-23T08:04:44;97957.78;;;21.03;80.00
6532;BME280;3299;42.004;24.868;2023-05-23T08:07:10;97900.59;;;20.82;78.94
6532;BME280;3299;42.004;24.868;2023-05-23T08:09:36;97891.81;;;20.90;76.83
6532;BME280;3299;42.004;24.868;2023-05-23T08:12:02;97949.63;;;21.27;75.37
6532;BME280;3299;42.004;24.868;2023-05-23T08:14:27;97965.91;;;21.37;74.38
6532;BME280;3299;42.004;24.868;2023-05-23T08:16:52;97958.47;;;21.26;75.05
6532;BME280;3299;42.004;24.868;2023-05-23T08:19:21;97961.59;;;21.29;73.83
6532;BME280;3299;42.004;24.868;2023-05-23T08:21:46;97922.47;;;21.12;73.46
6532;BME280;3299;42.004;24.868;2023-05-23T08:24:11;97963.28;;;21.37;72.02
6532;BME280;3299;42.004;24.868;2023-05-23T08:26:38;97956.50;;;21.42;69.77
6532;BME280;3299;42.004;24.868;2023-05-23T08:29:03;97898.44;;;21.15;66.86
6532;BME280;3299;42.004;24.868;2023-05-23T08:31:30;97927.97;;;21.46;66.18
6532;BME280;3299;42.004;24.868;2023-05-23T08:33:57;97971.00;;;21.67;65.94
6532;BME280;3299;42.004;24.868;2023-05-23T08:36:23;97921.09;;;21.45;64.13
6532;BME280;3299;42.004;24.868;2023-05-23T08:38:49;97967.72;;;21.80;64.49
6532;BME280;3299;42.004;24.868;2023-05-23T08:41:18;97892.31;;;21.43;65.53
6532;BME280;3299;42.004;24.868;2023-05-23T08:43:44;97967.03;;;21.92;67.79
6532;BME280;3299;42.004;24.868;2023-05-23T08:46:11;97915.88;;;21.51;66.15
6532;BME280;3299;42.004;24.868;2023-05-23T08:48:37;97902.94;;;21.50;65.95
6532;BME280;3299;42.004;24.868;2023-05-23T08:51:03;97971.19;;;22.01;64.92
6532;BME280;3299;42.004;24.868;2023-05-23T08:53:30;97923.56;;;21.82;64.07
6532;BME280;3299;42.004;24.868;2023-05-23T08:55:58;97948.91;;;22.04;64.69
6532;BME280;3299;42.004;24.868;2023-05-23T08:58:29;97969.03;;;22.32;63.93
6532;BME280;3299;42.004;24.868;2023-05-23T09:00:56;97893.25;;;21.92;61.92
6532;BME280;3299;42.004;24.868;2023-05-23T09:03:23;97962.47;;;22.43;61.30
6532;BME280;3299;42.004;24.868;2023-05-23T09:05:50;97893.50;;;21.97;61.70
6532;BME280;3299;42.004;24.868;2023-05-23T09:08:15;97961.59;;;22.57;62.92
6532;BME280;3299;42.004;24.868;2023-05-23T09:10:43;97971.19;;;22.64;60.97
6532;BME280;3299;42.004;24.868;2023-05-23T09:13:08;97929.44;;;22.47;62.59
6532;BME280;3299;42.004;24.868;2023-05-23T09:15:34;97896.44;;;22.30;61.39
6532;BME280;3299;42.004;24.868;2023-05-23T09:18:00;97973.09;;;22.77;59.06
6532;BME280;3299;42.004;24.868;2023-05-23T09:20:29;97924.38;;;22.73;60.01
6532;BME280;3299;42.004;24.868;2023-05-23T09:22:55;97963.56;;;23.03;58.45
6532;BME280;3299;42.004;24.868;2023-05-23T09:25:20;97899.97;;;22.64;59.92
6532;BME280;3299;42.004;24.868;2023-05-23T09:27:46;97947.09;;;23.01;58.49
6532;BME280;3299;42.004;24.868;2023-05-23T09:30:12;97916.38;;;22.94;59.91
6532;BME280;3299;42.004;24.868;2023-05-23T09:32:38;97959.47;;;23.35;60.69
6532;BME280;3299;42.004;24.868;2023-05-23T09:35:07;97921.44;;;23.23;58.86
6532;BME280;3299;42.004;24.868;2023-05-23T09:37:38;97968.09;;;23.50;58.96
6532;BME280;3299;42.004;24.868;2023-05-23T09:40:07;97962.63;;;23.51;58.81
6532;BME280;3299;42.004;24.868;2023-05-23T09:42:46;97958.56;;;23.49;59.52
6532;BME280;3299;42.004;24.868;2023-05-23T09:45:13;97943.22;;;23.31;57.08
6532;BME280;3299;42.004;24.868;2023-05-23T09:47:39;97947.53;;;23.39;57.56
6532;BME280;3299;42.004;24.868;2023-05-23T09:50:12;97947.38;;;23.53;56.80
6532;BME280;3299;42.004;24.868;2023-05-23T09:52:38;97942.97;;;23.67;57.12
6532;BME280;3299;42.004;24.868;2023-05-23T09:55:05;97899.25;;;23.51;55.34
6532;BME280;3299;42.004;24.868;2023-05-23T09:57:33;97924.94;;;23.77;56.28
6532;BME280;3299;42.004;24.868;2023-05-23T10:00:03;97884.63;;;23.62;56.08
6532;BME280;3299;42.004;24.868;2023-05-23T10:03:09;97955.09;;;24.02;54.53
6532;BME280;3299;42.004;24.868;2023-05-23T10:05:47;97961.19;;;24.08;53.90
6532;BME280;3299;42.004;24.868;2023-05-23T10:08:18;97894.84;;;23.77;54.35
6532;BME280;3299;42.004;24.868;2023-05-23T10:13:48;97943.31;;;24.10;55.85
6532;BME280;3299;42.004;24.868;2023-05-23T10:16:33;97950.66;;;24.15;55.33
6532;BME280;3299;42.004;24.868;2023-05-23T10:19:09;97868.00;;;23.80;52.03
6532;BME280;3299;42.004;24.868;2023-05-23T10:21:43;97894.50;;;23.94;52.25
6532;BME280;3299;42.004;24.868;2023-05-23T10:24:10;97914.03;;;24.06;50.95
6532;BME280;3299;42.004;24.868;2023-05-23T10:26:36;97878.56;;;23.80;52.22
6532;BME280;3299;42.004;24.868;2023-05-23T10:29:01;97912.41;;;23.98;52.11
6532;BME280;3299;42.004;24.868;2023-05-23T10:31:28;97945.97;;;24.17;52.47
6532;BME280;3299;42.004;24.868;2023-05-23T10:34:16;97938.44;;;24.20;51.54
6532;BME280;3299;42.004;24.868;2023-05-23T10:36:59;97873.31;;;23.87;51.31
6532;BME280;3299;42.004;24.868;2023-05-23T10:40:06;97939.69;;;24.31;51.13
6532;BME280;3299;42.004;24.868;2023-05-23T10:42:44;97933.16;;;24.53;51.34
6532;BME280;3299;42.004;24.868;2023-05-23T10:47:39;97925.22;;;24.92;50.52
6532;BME280;3299;42.004;24.868;2023-05-23T10:50:05;97857.66;;;24.76;49.22
6532;BME280;3299;42.004;24.868;2023-05-23T10:52:38;97880.63;;;24.95;49.33
6532;BME280;3299;42.004;24.868;2023-05-23T10:55:14;97931.44;;;25.36;49.70
6532;BME280;3299;42.004;24.868;2023-05-23T10:57:42;97927.69;;;25.63;48.78
6532;BME280;3299;42.004;24.868;2023-05-23T11:00:13;97918.59;;;25.84;47.79
6532;BME280;3299;42.004;24.868;2023-05-23T11:02:46;97938.44;;;26.12;46.76
6532;BME280;3299;42.004;24.868;2023-05-23T11:05:18;97871.25;;;25.94;46.09
6532;BME280;3299;42.004;24.868;2023-05-23T11:08:11;97873.75;;;26.13;46.91
6532;BME280;3299;42.004;24.868;2023-05-23T11:10:54;97881.75;;;26.07;47.45
6532;BME280;3299;42.004;24.868;2023-05-23T11:13:21;97901.00;;;25.96;47.19
6532;BME280;3299;42.004;24.868;2023-05-23T11:15:47;97942.44;;;25.90;47.21
6532;BME280;3299;42.004;24.868;2023-05-23T11:18:21;97914.34;;;25.32;46.76
6532;BME280;3299;42.004;24.868;2023-05-23T11:20:49;97972.69;;;25.70;48.74
6532;BME280;3299;42.004;24.868;2023-05-23T11:23:15;97965.34;;;24.76;53.70
6532;BME280;3299;42.004;24.868;2023-05-23T11:25:43;97951.31;;;23.70;58.16
6532;BME280;3299;42.004;24.868;2023-05-23T11:28:11;97962.00;;;23.15;60.45
6532;BME280;3299;42.004;24.868;2023-05-23T11:30:37;97919.06;;;22.66;61.91
6532;BME280;3299;42.004;24.868;2023-05-23T11:33:07;97883.47;;;22.28;64.42
6532;BME280;3299;42.004;24.868;2023-05-23T11:35:34;97873.63;;;21.74;65.34
6532;BME280;3299;42.004;24.868;2023-05-23T11:38:01;97871.59;;;21.40;66.84
6532;BME280;3299;42.004;24.868;2023-05-23T11:40:34;97942.16;;;21.80;67.24
6532;BME280;3299;42.004;24.868;2023-05-23T11:43:04;97855.16;;;21.17;67.17
6532;BME280;3299;42.004;24.868;2023-05-23T11:45:31;97916.31;;;21.55;67.13
6532;BME280;3299;42.004;24.868;2023-05-23T11:47:57;97935.66;;;21.76;67.08
6532;BME280;3299;42.004;24.868;2023-05-23T11:50:23;97896.16;;;21.62;67.44
6532;BME280;3299;42.004;24.868;2023-05-23T11:52:49;97895.34;;;21.61;66.46
6532;BME280;3299;42.004;24.868;2023-05-23T11:55:19;97890.38;;;21.52;66.71
6532;BME280;3299;42.004;24.868;2023-05-23T11:57:45;97906.00;;;21.68;66.45
6532;BME280;3299;42.004;24.868;2023-05-23T12:00:11;97847.78;;;21.84;64.59
6532;BME280;3299;42.004;24.868;2023-05-23T12:02:41;97907.91;;;22.71;62.87
6532;BME280;3299;42.004;24.868;2023-05-23T12:05:11;97884.59;;;23.02;60.63
6532;BME280;3299;42.004;24.868;2023-05-23T12:07:47;97892.16;;;23.58;58.36
6532;BME280;3299;42.004;24.868;2023-05-23T12:10:16;97868.66;;;23.89;54.98
6532;BME280;3299;42.004;24.868;2023-05-23T12:12:42;97875.59;;;24.42;54.04
6532;BME280;3299;42.004;24.868;2023-05-23T12:15:09;97881.88;;;24.73;52.67
6532;BME280;3299;42.004;24.868;2023-05-23T12:17:43;97941.59;;;25.52;49.38
6532;BME280;3299;42.004;24.868;2023-05-23T12:20:10;97893.16;;;25.19;48.71
6532;BME280;3299;42.004;24.868;2023-05-23T12:22:35;97905.59;;;25.25;49.32
6532;BME280;3299;42.004;24.868;2023-05-23T12:25:01;97922.47;;;25.44;50.02
6532;BME280;3299;42.004;24.868;2023-05-23T12:27:33;97848.41;;;25.05;50.23
6532;BME280;3299;42.004;24.868;2023-05-23T12:32:32;97856.88;;;25.39;47.54
6532;BME280;3299;42.004;24.868;2023-05-23T12:34:57;97914.59;;;25.68;46.80
6532;BME280;3299;42.004;24.868;2023-05-23T12:37:23;97874.59;;;25.32;47.63
6532;BME280;3299;42.004;24.868;2023-05-23T12:39:48;97882.97;;;25.29;49.52
6532;BME280;3299;42.004;24.868;2023-05-23T12:42:14;97829.94;;;24.85;48.89
6532;BME280;3299;42.004;24.868;2023-05-23T12:44:42;97902.22;;;24.92;49.16
6532;BME280;3299;42.004;24.868;2023-05-23T12:47:08;97903.88;;;24.74;49.41
6532;BME280;3299;42.004;24.868;2023-05-23T12:49:34;97872.75;;;24.63;48.95
6532;BME280;3299;42.004;24.868;2023-05-23T12:52:01;97909.56;;;24.84;49.43
6532;BME280;3299;42.004;24.868;2023-05-23T12:54:26;97834.31;;;24.28;51.56
6532;BME280;3299;42.004;24.868;2023-05-23T12:56:51;97833.31;;;24.03;51.50
6532;BME280;3299;42.004;24.868;2023-05-23T12:59:17;97880.25;;;24.33;51.16
6532;BME280;3299;42.004;24.868;2023-05-23T13:01:43;97829.81;;;23.96;51.60
6532;BME280;3299;42.004;24.868;2023-05-23T13:04:09;97851.00;;;24.09;51.44
6532;BME280;3299;42.004;24.868;2023-05-23T13:06:34;97879.88;;;24.36;51.90
6532;BME280;3299;42.004;24.868;2023-05-23T13:08:59;97850.19;;;24.34;51.26
6532;BME280;3299;42.004;24.868;2023-05-23T13:11:26;97810.13;;;24.12;51.40
6532;BME280;3299;42.004;24.868;2023-05-23T13:13:51;97806.03;;;24.28;51.59
6532;BME280;3299;42.004;24.868;2023-05-23T13:16:17;97872.81;;;25.20;51.85